Scroll down
FLIGHT INFORMATION
Olympic Air

OAL260

Diverted

LGAV
 CYYR
[Original Destination: CYYR ]
DATE: 2018-11-23
GATE:  -
GATE DEPARTURE: 07:58
TAKEOFF: 08:11
DATE: 2018-11-23
GATE:  -
LANDING: 16:04
GATE ARRIVAL: 16:11
FLIGHT DATA
Crew: 
Speed: 
941 kph
Altitude: 
40,077 ft
Stage Length: 
9,154.0 km
Block Time: 
8.1 hrs
Flight Time: 
7.9 hrs
Fuel Used: 
71,172 kg
Cleared Route: RIMAX XANIS YNN VJOSA PAPIZ GONOT CRAYE GISAM RILIM SAL LABIN SUXAN VALAV RONAG ARGAX ELMUR MANEG RIPUS DITON HOC NATLI LUL IXILU RESPO RLP ROTSI KOTUN PODUK DIDOR IRBAL NITAR ABNUR DIMAL ALESO ROTNO ETVAX TIGER BIG GOXUL LINDY NORRY CPT KENET UGNUS OKTAD TALGA LANON BADSI LIPGO RESNO 5620N 5730N 5740N 5650N JANJO YRI FLEUR CFB PSK SPA92 DGESS
TRACK DATA
50,000 ft 1,000 kts
AIRCRAFT INFO AND CUMULATIVE STATS
Aircraft Type: 
B748
Registration: 
SELCAL: 
MSN/LN: 
0 / 1
Operator: 
Total Flights: 
6
Total Block Time: 
27.6 hrs
Total Flight Time: 
26.2 hrs
Total Fuel Used: 
233,890 kg
DATALINK LOG | Newest first | Current as of: 2022-10-07 21:37:19
LABEL SEQUENCE CONTENT Dn/Up
QD113816:11 89.2▼ Dn
QC040216:04▼ Dn
2U4120CYYR 231400Z 29014G21KT 7SM -SN DRSN BKN026 OVC033 M12/M15 A2933 RMK SC6SC2 SLP938▲ Up
2S4120CYYR▼ Dn
5U1356KATL 231607Z 09012KT 10SM SCT250 04/02 A3029▲ Up
5S1356KATL▼ Dn
QB124808:12▼ Dn
QA000808:00 246.4▼ Dn


AIRCRAFT HISTORY
FLIGHT DATE FLIGHT NO. ORIGIN DESTINATION CLEARED ROUTE BLOCK TIME FLIGHT TIME FUEL USED PILOT
2022-01-16OAL519KBUF KBOS KBUF GEE PONCT KBOS1.2 hrs1 hrs27,293 lbChemtrails
2019-03-22OAL519KATL KBUF KATL MPASS ZELAN PADGT COLVN SMTTH CEMEX IBATE TONIO TAFTT JONEN HNN EWC DKK ZOBSO RW051.8 hrs1.6 hrs36,762 lbChemtrails
2018-12-04OAL260CYYR KATL YYR YRI FLEUR CFB PSB PSYKO EMNEM GEFFS ASERY WISTA KONGO HLRRY STRWY4.2 hrs3.9 hrs69,450 lbChris Makris
2018-11-23OAL260LGAV CYYR RIMAX XANIS YNN VJOSA PAPIZ GONOT CRAYE GISAM RILIM SAL LABIN SUXAN VALAV RONAG ARGAX ELMUR MANEG RIPUS DITON HOC NATLI LUL IXILU RESPO RLP ROTSI KOTUN PODUK DIDOR IRBAL NITAR ABNUR DIMAL ALESO ROTNO ETVAX TIGER BIG GOXUL LINDY NORRY CPT KENET UGNUS OKTAD TALGA LANON BADSI LIPGO RESNO 5620N 5730N 5740N 5650N JANJO YRI FLEUR CFB PSK SPA92 DGESS8.1 hrs7.9 hrs156,907 lbChris Makris
2018-11-23OAL260LGAV LGAV RIMAX XANIS YNN VJOSA PAPIZ GONOT CRAYE GISAM RILIM SAL LABIN SUXAN VALAV RONAG ARGAX ELMUR MANEG RIPUS DITON HOC NATLI LUL IXILU RESPO RLP ROTSI KOTUN PODUK DIDOR IRBAL NITAR ABNUR DIMAL ALESO ROTNO ETVAX TIGER BIG GOXUL LINDY NORRY CPT KENET UGNUS OKTAD TALGA LANON BADSI LIPGO RESNO 5620N 5730N 5740N 5650N JANJO YRI FLEUR CFB PSK SPA92 DGESS0.1 hrs0 hrs0 lbChris Makris
2018-11-06OAL260KPAE LGAV PAE HUH HUH03 COGLE SHARD VITEV BOOTH SPUZZ MERYT ICOLA STUMM YNY BOJAM CALLY SELUM ALGAR YMM 62N00 6591N 6780N 6870N 6860N 6850N 6740N 6530N 6320N ATSIX AKIVO LARDI TOPPA LIRSU NOSPA KRH LAMGO UTABA MOMUK BEMKI XEBIX ELMEM BILDU OTRES GIRIS TISAX NAXAV GIKEB LAMPO AKADO AGOMO BUSER GISNU XAPAT TIGRA BEDEX ROTSA SOTEG ARA NEMES12.1 hrs11.8 hrs225,228 lbChris Makris